Aviation Digital Data Service (ADDS)

Output produced by METARs form (0943 UTC 25 February 2018)
found at http://aviationweather.gov/adds/metars/
 
KFNT 250908Z 2509/2606 15015KT 3SM -SHRA BR OVC004 WS007/11040KT 
     FM251100 24023G37KT P6SM OVC020 
     FM251500 24020G32KT P6SM OVC020 
     FM251800 24015G25KT P6SM FEW035 
     FM252300 25010KT P6SM SKC